Hovedside
METAR-TAF:

METAR-TAF

Lufthavner :

Skellefteå lufthavn

Skellefteå, Sverige

breddegrad: 64-38N, lengdegrad: 021-05E, høyde over havet: 49 m

Gjeldene værobservasjon

Denne rapporten ble laget for 13 minutter siden, klokken 01:20 UTC
Vind 6 kt fra Nord
Temperatur -1°C
Luftfuktighet 93%
Trykk 1014 hPa
Sikt: 6000 m
frysende, ukjent

METAR: ESNS 110120Z AUTO 35006KT 6000 FZUP OVC006/// M01/M02 Q1014

Tid: 02:33 (01:33 UTC)

Varsel

Denne rapporten ble laget for 5 timer og 3 minutter siden, klokken 20:30 UTC
Varsel gyldig fra 10. klokken 21 UTC til 10. klokken 23 UTC
Vind 7 kt fra Nord
Sikt: 8000 m
Brutte skyer i en høyde av 500 ft
lett snø, regn
Midlertidig
fra 10. klokken 21 UTC til 10. klokken 23 UTC
Sikt: 2000 m
i en høyde av 1200 ft
lett snø

TAF: ESNS 102030Z 1021/1023 36007KT 8000 -SNRA BKN005 TEMPO 1021/1023 2000 -SN VV012

Værobservasjoner og værvarsel for over 4000 flyplasser (METAR- og TAF-rapporter).

Tilgjengelige stasjoner er representert av de røde og gule prikkene på kartet.

Hold musepekeren over prikken for å se navnet på stasjonen.

Klikk så for å se værobservasjoner og -varsler.

For å forandre kartet kan du klikke på den grønne knappen med svart kryss for å zoome inn, på den grønne knappen med strek for å zoome ut, eller på de grønne pilene for å se tilstøtende kart.


METAR-TAF: